Time;durP1;ratioP1;P1;durP2;ratioP2;P2;SDS_P1;SDS_P2;PMS_P1;PMS_P2;Temp;Humidity;BMP_temperature;BMP_pressure;BME280_temperature;BME280_humidity;BME280_pressure;Samples;Min_cycle;Max_cycle;Signal;HPM_P1;HPM_P2
2022/08/15 00:01:44;;;;;;;16.60;12.90;;;;;;;-143.84;81.05;45060.50;5109041;28;20435;-72
2022/08/15 00:04:11;;;;;;;16.00;13.50;;;;;;;-143.84;81.36;45077.63;5109108;28;20439;-72
2022/08/15 00:06:41;;;;;;;34.67;14.70;;;;;;;-143.84;81.88;45041.44;5109092;28;20949;-72
2022/08/15 00:09:13;;;;;;;17.00;14.83;;;;;;;-143.84;82.38;45049.06;5109032;28;20603;-72
2022/08/15 00:11:42;;;;;;;21.83;15.73;;;;;;;-143.84;82.83;45049.06;5108821;28;20564;-72
2022/08/15 00:14:15;;;;;;;25.97;15.10;;;;;;;-143.84;82.40;45066.22;5108949;28;20488;-72
2022/08/15 00:16:47;;;;;;;14.57;13.00;;;;;;;-143.84;82.64;45047.16;5108866;28;20833;-72
2022/08/15 00:19:17;;;;;;;21.43;13.93;;;;;;;-143.84;82.43;45030.03;5109089;28;20474;-72
2022/08/15 00:21:46;;;;;;;14.70;13.10;;;;;;;-143.84;82.21;45052.88;5108655;28;20435;-72
2022/08/15 00:24:16;;;;;;;18.50;13.70;;;;;;;-143.84;82.03;45079.53;5108300;28;20482;-72
2022/08/15 00:26:43;;;;;;;15.60;12.97;;;;;;;-143.84;81.80;45075.72;5108785;28;20504;-72
2022/08/15 00:29:13;;;;;;;14.43;12.53;;;;;;;-143.84;81.93;45085.25;5112015;28;20482;-72
2022/08/15 00:31:41;;;;;;;23.17;12.80;;;;;;;-143.84;81.50;45090.97;5112118;28;20530;-72
2022/08/15 00:34:09;;;;;;;12.93;11.63;;;;;;;-143.84;81.28;45068.13;5112254;28;20489;-71
2022/08/15 00:36:36;;;;;;;15.83;13.37;;;;;;;-143.84;81.27;45054.78;5112109;28;20435;-72
2022/08/15 00:39:06;;;;;;;18.10;12.33;;;;;;;-143.84;81.18;45064.31;5111952;28;20446;-72
2022/08/15 00:41:41;;;;;;;16.10;12.87;;;;;;;-143.84;80.89;45071.91;5112066;28;20504;-72
2022/08/15 00:44:14;;;;;;;15.43;13.77;;;;;;;-143.84;80.82;45070.00;5112016;28;20525;-72
2022/08/15 00:46:43;;;;;;;13.93;12.03;;;;;;;-143.84;80.80;45070.00;5111996;28;20535;-71
2022/08/15 00:49:12;;;;;;;18.97;13.80;;;;;;;-143.84;80.82;45071.91;5111723;28;20482;-71
2022/08/15 00:51:46;;;;;;;17.53;13.10;;;;;;;-143.84;81.10;45066.22;5112136;28;20450;-71
2022/08/15 00:54:19;;;;;;;13.30;12.00;;;;;;;-143.84;80.70;45073.81;5111614;28;21243;-72
2022/08/15 00:56:51;;;;;;;15.47;13.27;;;;;;;-143.84;80.84;45056.69;5111725;28;20502;-71
2022/08/15 00:59:24;;;;;;;14.23;12.73;;;;;;;-143.84;81.05;45066.22;5111436;28;20454;-71
2022/08/15 01:01:52;;;;;;;14.87;13.23;;;;;;;-143.84;80.96;45075.72;5111545;28;20492;-71
2022/08/15 01:04:20;;;;;;;16.10;12.90;;;;;;;-143.84;80.98;45075.72;5111506;28;20655;-71
2022/08/15 01:06:48;;;;;;;13.80;11.97;;;;;;;-143.84;80.97;45083.34;5111691;28;20496;-72
2022/08/15 01:09:17;;;;;;;20.30;11.83;;;;;;;-143.84;80.90;45073.81;5111672;28;20901;-72
2022/08/15 01:11:49;;;;;;;14.70;12.50;;;;;;;-143.84;81.00;45079.53;5111519;28;20437;-72
2022/08/15 01:14:17;;;;;;;12.37;11.17;;;;;;;-143.84;81.20;45087.16;5111570;28;20423;-72
2022/08/15 01:16:45;;;;;;;16.50;12.57;;;;;;;-143.84;80.93;45087.16;5111292;28;20443;-72
2022/08/15 01:19:18;;;;;;;20.17;13.30;;;;;;;-143.84;80.74;45037.66;5110503;28;20451;-72
2022/08/15 01:22:13;;;;;;;14.43;12.90;;;;;;;-143.84;80.81;45043.34;5110151;28;20435;-72
2022/08/15 01:24:57;;;;;;;17.60;14.90;;;;;;;-143.84;80.96;45056.69;5111115;28;20490;-72
2022/08/15 01:27:29;;;;;;;23.37;13.20;;;;;;;-143.84;80.65;45054.78;5110242;28;20442;-72
2022/08/15 01:29:57;;;;;;;13.37;11.97;;;;;;;-143.84;80.99;45083.34;5110709;28;20443;-72
2022/08/15 01:32:25;;;;;;;13.63;12.23;;;;;;;-143.84;81.07;45083.34;5110966;28;20428;-72
2022/08/15 01:34:52;;;;;;;15.80;12.83;;;;;;;-143.84;81.26;45073.81;5111050;28;20442;-72
2022/08/15 01:37:20;;;;;;;13.93;12.17;;;;;;;-143.84;81.04;45073.81;5110971;28;20443;-72
2022/08/15 01:39:55;;;;;;;15.07;13.40;;;;;;;-143.84;80.80;45045.25;5110876;28;20443;-72
2022/08/15 01:42:29;;;;;;;13.80;12.40;;;;;;;-143.84;80.56;45058.59;5111229;28;20438;-72
2022/08/15 01:44:59;;;;;;;17.40;11.90;;;;;;;-143.84;81.07;45049.06;5110775;28;20439;-72
2022/08/15 01:47:34;;;;;;;14.20;12.33;;;;;;;-143.84;80.83;45070.00;5110886;27;21013;-72
2022/08/15 01:50:07;;;;;;;13.63;12.43;;;;;;;-143.84;80.76;45089.06;5110755;28;20445;-71
2022/08/15 01:52:40;;;;;;;23.07;14.10;;;;;;;-143.84;81.02;45089.06;5110567;28;20553;-71
2022/08/15 01:55:11;;;;;;;16.30;13.20;;;;;;;-143.84;81.33;45050.97;5110706;28;20512;-72
2022/08/15 01:57:38;;;;;;;14.37;12.80;;;;;;;-143.84;81.23;45064.31;5110358;28;20447;-71
2022/08/15 02:00:08;;;;;;;14.80;13.30;;;;;;;-143.84;81.36;45060.50;5110752;28;20470;-72
2022/08/15 02:02:35;;;;;;;15.30;13.90;;;;;;;-143.84;81.31;45083.34;5110384;27;20439;-72
2022/08/15 02:05:04;;;;;;;13.30;12.00;;;;;;;-143.84;81.58;45047.16;5110613;28;20430;-72
2022/08/15 02:07:31;;;;;;;15.27;13.67;;;;;;;-143.84;81.50;45056.69;5110248;28;20449;-72
2022/08/15 02:09:59;;;;;;;16.43;13.13;;;;;;;-143.84;81.44;45056.69;5110116;28;20482;-71
2022/08/15 02:12:32;;;;;;;15.50;13.53;;;;;;;-143.84;81.93;45085.25;5110210;28;20435;-72
2022/08/15 02:15:02;;;;;;;15.83;13.60;;;;;;;-143.84;82.09;45071.91;5110425;28;20446;-71
2022/08/15 02:17:30;;;;;;;15.60;14.00;;;;;;;-143.84;82.15;45050.97;5111427;28;20443;-70
2022/08/15 02:19:57;;;;;;;17.43;14.13;;;;;;;-143.84;82.09;45045.25;5110765;28;20426;-69
2022/08/15 02:22:26;;;;;;;16.20;13.97;;;;;;;-143.84;82.32;45083.34;5111007;28;20435;-70
2022/08/15 02:24:55;;;;;;;23.10;13.63;;;;;;;-143.84;82.41;45081.44;5110822;28;20481;-70
2022/08/15 02:27:22;;;;;;;17.03;15.27;;;;;;;-143.84;82.60;45096.66;5110690;28;20528;-69
2022/08/15 02:29:51;;;;;;;17.13;14.87;;;;;;;-143.84;82.66;45089.06;5110603;28;20479;-70
2022/08/15 02:32:19;;;;;;;21.70;15.63;;;;;;;-143.84;82.84;45049.06;5110682;28;20503;-69
2022/08/15 02:34:48;;;;;;;15.37;13.83;;;;;;;-143.84;82.65;45052.88;5111072;28;20446;-69
2022/08/15 02:37:18;;;;;;;22.30;14.97;;;;;;;-143.84;82.80;45077.63;5110824;28;20441;-70
2022/08/15 02:39:46;;;;;;;17.07;15.27;;;;;;;-143.84;82.75;45092.88;5110742;28;21143;-70
2022/08/15 02:42:15;;;;;;;18.60;14.37;;;;;;;-143.84;83.03;45079.53;5110788;28;20443;-69
2022/08/15 02:44:42;;;;;;;15.60;14.20;;;;;;;-143.84;82.98;45083.34;5110612;28;20435;-70
2022/08/15 02:47:14;;;;;;;27.30;15.10;;;;;;;-143.84;83.10;45056.69;5111195;28;20506;-70
2022/08/15 02:49:43;;;;;;;17.37;14.23;;;;;;;-143.84;83.31;45071.91;5109772;28;20482;-70
2022/08/15 02:52:11;;;;;;;17.20;15.37;;;;;;;-143.84;82.98;45073.81;5110874;28;21417;-70
2022/08/15 02:54:38;;;;;;;19.13;15.70;;;;;;;-143.84;83.58;45096.66;5110946;28;20458;-70
2022/08/15 02:57:06;;;;;;;19.13;15.83;;;;;;;-143.84;83.56;45090.97;5110916;28;20435;-70
2022/08/15 02:59:34;;;;;;;19.60;15.37;;;;;;;-143.84;83.73;45056.69;5110608;28;20449;-70
2022/08/15 03:02:01;;;;;;;24.33;16.60;;;;;;;-143.84;83.92;45071.91;5110474;28;20484;-69
2022/08/15 03:04:34;;;;;;;18.33;16.20;;;;;;;-143.84;84.12;45085.25;5110256;28;20484;-70
2022/08/15 03:07:01;;;;;;;16.40;14.73;;;;;;;-143.84;84.38;45071.91;5110761;28;20443;-70
2022/08/15 03:09:28;;;;;;;18.10;16.20;;;;;;;-143.84;83.90;45064.31;5110445;28;20475;-70
2022/08/15 03:11:57;;;;;;;25.20;18.67;;;;;;;-143.84;83.85;45064.31;5110589;28;20496;-69
2022/08/15 03:14:26;;;;;;;21.27;17.40;;;;;;;-143.84;83.68;45071.91;5110132;28;20617;-69
2022/08/15 03:16:53;;;;;;;20.40;15.70;;;;;;;-143.84;83.88;45073.81;5110486;28;20462;-70
2022/08/15 03:19:25;;;;;;;20.20;15.90;;;;;;;-143.84;83.79;45045.25;5110272;28;20431;-70
2022/08/15 03:21:54;;;;;;;18.20;16.30;;;;;;;-143.84;83.76;45064.31;5109987;28;20522;-70
2022/08/15 03:24:23;;;;;;;21.43;15.63;;;;;;;-143.84;84.02;45081.44;5109937;28;20493;-70
2022/08/15 03:26:51;;;;;;;18.50;15.53;;;;;;;-143.84;83.64;45083.34;5110205;28;20441;-70
2022/08/15 03:29:20;;;;;;;18.43;15.83;;;;;;;-143.84;83.16;45068.13;5110254;28;20544;-70
2022/08/15 03:31:49;;;;;;;18.70;16.90;;;;;;;-143.84;82.96;45031.94;5110582;28;20443;-70
2022/08/15 03:34:18;;;;;;;21.73;17.30;;;;;;;-143.84;82.77;45047.16;5110512;28;20433;-70
2022/08/15 03:36:46;;;;;;;22.90;16.20;;;;;;;-143.84;82.64;45056.69;5110291;28;20443;-70
2022/08/15 03:39:15;;;;;;;19.53;16.80;;;;;;;-143.84;82.95;45071.91;5109826;28;20443;-70
2022/08/15 03:41:44;;;;;;;19.73;15.30;;;;;;;-143.84;82.81;45087.16;5125864;28;20967;-70
2022/08/15 03:44:12;;;;;;;20.53;16.40;;;;;;;-143.84;82.74;45070.00;5129862;28;20429;-78
2022/08/15 03:46:39;;;;;;;21.00;18.67;;;;;;;-143.84;82.95;45079.53;5132243;28;20467;-80
2022/08/15 03:49:06;;;;;;;22.53;16.90;;;;;;;-143.84;82.87;45068.13;5131953;28;20466;-79
2022/08/15 03:51:34;;;;;;;19.97;17.37;;;;;;;-143.84;82.68;45056.69;5131663;28;20484;-79
2022/08/15 03:54:02;;;;;;;23.53;17.87;;;;;;;-143.84;83.06;45054.78;5132647;28;20541;-79
2022/08/15 03:56:32;;;;;;;18.30;16.33;;;;;;;-143.84;82.75;45083.34;5132059;28;20426;-79
2022/08/15 03:59:01;;;;;;;19.50;16.97;;;;;;;-143.84;82.62;45047.16;5132475;28;20490;-80
2022/08/15 04:01:31;;;;;;;18.67;16.10;;;;;;;-143.84;82.52;45056.69;5133760;27;20433;-79
2022/08/15 04:03:59;;;;;;;18.57;15.80;;;;;;;-143.84;82.91;45085.25;5131311;27;20445;-74
2022/08/15 04:06:29;;;;;;;20.27;15.77;;;;;;;-143.84;82.71;45068.13;5133311;27;20446;-75
2022/08/15 04:08:58;;;;;;;20.50;15.53;;;;;;;-143.84;82.81;45064.31;5133233;27;21203;-74
2022/08/15 04:11:30;;;;;;;18.30;15.80;;;;;;;-143.84;82.89;45050.97;5133172;27;20472;-75
2022/08/15 04:13:59;;;;;;;18.77;14.67;;;;;;;-143.84;82.88;45077.63;5132161;27;20445;-74
2022/08/15 04:16:26;;;;;;;16.73;14.10;;;;;;;-143.84;82.65;45068.13;5132196;27;20484;-74
2022/08/15 04:18:54;;;;;;;18.87;15.77;;;;;;;-143.84;82.73;45071.91;5132206;27;20438;-74
2022/08/15 04:21:21;;;;;;;22.20;15.07;;;;;;;-143.84;81.73;45071.91;5131217;27;20490;-74
2022/08/15 04:23:49;;;;;;;19.00;15.20;;;;;;;-143.84;82.29;45066.22;5131023;27;20502;-74
2022/08/15 04:26:18;;;;;;;21.80;15.60;;;;;;;-143.84;82.36;45039.53;5131459;27;20434;-74
2022/08/15 04:28:45;;;;;;;18.73;14.97;;;;;;;-143.84;82.92;45066.22;5131404;27;20907;-74
2022/08/15 04:31:17;;;;;;;22.27;14.53;;;;;;;-143.84;82.51;45056.69;5131642;27;20454;-74
2022/08/15 04:33:45;;;;;;;18.70;16.40;;;;;;;-143.84;82.62;45089.06;5131595;27;20491;-74
2022/08/15 04:36:16;;;;;;;17.50;15.70;;;;;;;-143.84;82.16;45073.81;5132307;27;20881;-74
2022/08/15 04:38:44;;;;;;;16.13;14.57;;;;;;;-143.84;80.93;45052.88;5132844;27;20924;-74
2022/08/15 04:41:13;;;;;;;22.67;17.47;;;;;;;-143.84;79.99;45058.59;5132701;27;20433;-74
2022/08/15 04:43:44;;;;;;;20.10;15.40;;;;;;;-143.84;79.36;45085.25;5132731;27;20437;-74
2022/08/15 04:46:12;;;;;;;33.83;15.20;;;;;;;-143.84;79.25;45066.22;5132497;27;20530;-74
2022/08/15 04:48:41;;;;;;;16.93;13.67;;;;;;;-143.84;78.20;45054.78;5132222;27;20491;-74
2022/08/15 04:51:08;;;;;;;20.80;13.60;;;;;;;-143.84;77.66;45043.34;5132198;27;20450;-74
2022/08/15 04:53:38;;;;;;;15.93;14.27;;;;;;;-143.84;77.00;45071.91;5132437;27;20430;-74
2022/08/15 04:56:07;;;;;;;16.70;14.33;;;;;;;-143.84;76.53;45068.13;5132606;27;20454;-74
2022/08/15 04:58:34;;;;;;;15.47;13.03;;;;;;;-143.84;76.42;45083.34;5132124;27;20437;-74
2022/08/15 05:01:05;;;;;;;16.43;13.30;;;;;;;-143.84;76.33;45039.53;5132213;27;20519;-74
2022/08/15 05:03:33;;;;;;;15.93;12.10;;;;;;;-143.84;76.30;45052.88;5132061;27;20438;-74
2022/08/15 05:06:03;;;;;;;15.20;12.87;;;;;;;-143.84;75.38;45052.88;5132188;27;20878;-74
2022/08/15 05:08:33;;;;;;;17.77;14.77;;;;;;;-143.84;74.67;45070.00;5132072;27;20495;-74
2022/08/15 05:11:06;;;;;;;20.57;13.80;;;;;;;-143.84;74.35;45049.06;5132117;27;20438;-74
2022/08/15 05:13:36;;;;;;;15.60;13.80;;;;;;;-143.84;74.28;45035.75;5131312;27;20443;-74
2022/08/15 05:16:07;;;;;;;14.00;12.40;;;;;;;-143.84;74.24;45062.41;5132110;27;20507;-74
2022/08/15 05:18:35;;;;;;;17.00;13.00;;;;;;;-143.84;73.27;45047.16;5132015;27;20446;-74
2022/08/15 05:21:04;;;;;;;17.17;13.00;;;;;;;-143.84;72.87;45030.03;5131851;27;20980;-74
2022/08/15 05:23:32;;;;;;;20.93;12.30;;;;;;;-143.84;72.62;45035.75;5131918;27;20499;-74
2022/08/15 05:26:01;;;;;;;14.60;12.87;;;;;;;-143.84;71.99;45068.13;5131436;27;20530;-74
2022/08/15 05:28:28;;;;;;;16.20;14.50;;;;;;;-143.84;71.80;45054.78;5131914;27;21037;-74
2022/08/15 05:30:58;;;;;;;19.20;14.20;;;;;;;-143.84;71.01;45066.22;5131565;27;20971;-74
2022/08/15 05:33:27;;;;;;;16.70;12.70;;;;;;;-143.84;70.53;45060.50;5131551;27;20813;-74
2022/08/15 05:35:57;;;;;;;15.80;13.67;;;;;;;-143.84;70.34;45043.34;5131485;27;20944;-74
2022/08/15 05:38:29;;;;;;;14.83;13.23;;;;;;;-143.84;70.43;45064.31;5131594;27;20857;-74
2022/08/15 05:41:14;;;;;;;18.87;15.00;;;;;;;-143.84;69.99;45041.44;5131287;27;20453;-75
2022/08/15 05:43:47;;;;;;;20.30;15.40;;;;;;;-143.84;69.43;45028.13;5130630;27;20444;-75
2022/08/15 05:46:23;;;;;;;18.73;15.53;;;;;;;-143.84;69.69;45035.75;5130478;27;20433;-74
2022/08/15 05:49:00;;;;;;;18.47;14.30;;;;;;;-143.84;69.64;45030.03;5130576;27;20433;-74
2022/08/15 05:51:35;;;;;;;19.93;15.07;;;;;;;-143.84;69.77;45022.41;5130548;27;20445;-75
2022/08/15 05:54:18;;;;;;;19.67;15.03;;;;;;;-143.84;70.12;45030.03;5130582;27;20449;-74
2022/08/15 05:56:50;;;;;;;18.53;15.70;;;;;;;-143.84;70.23;45041.44;5130967;27;20438;-74
2022/08/15 05:59:20;;;;;;;23.33;16.67;;;;;;;-143.84;69.84;45009.09;5131150;27;20841;-74
2022/08/15 06:01:53;;;;;;;17.43;15.67;;;;;;;-143.84;69.07;45020.50;5131067;27;20960;-74
2022/08/15 06:04:37;;;;;;;18.77;14.90;;;;;;;-143.84;68.80;45035.75;5131353;27;20477;-74
2022/08/15 06:07:08;;;;;;;16.77;15.03;;;;;;;-143.84;68.65;45007.19;5131007;27;20992;-74
2022/08/15 06:09:43;;;;;;;22.07;15.83;;;;;;;-143.84;67.75;45009.09;5131022;27;20477;-74
2022/08/15 06:12:16;;;;;;;14.87;12.83;;;;;;;-143.84;66.82;45020.50;5130944;27;20922;-74
2022/08/15 06:14:46;;;;;;;20.00;13.70;;;;;;;-143.84;66.90;45014.78;5130807;27;20847;-74
2022/08/15 06:17:18;;;;;;;18.53;12.90;;;;;;;-143.84;66.94;45031.94;5130583;27;20507;-74
2022/08/15 06:19:50;;;;;;;18.97;11.80;;;;;;;-143.84;66.95;45010.97;5130730;27;20442;-74
2022/08/15 06:22:44;;;;;;;24.63;12.60;;;;;;;-143.84;66.25;45020.50;5130933;27;20773;-74
2022/08/15 06:25:31;;;;;;;21.57;12.30;;;;;;;-143.84;65.52;45020.50;5129581;27;20604;-75
2022/08/15 06:28:09;;;;;;;18.50;12.40;;;;;;;-143.84;65.42;45007.19;5130586;27;20442;-76
2022/08/15 06:30:44;;;;;;;17.23;12.70;;;;;;;-143.84;64.47;45007.19;5130304;27;20473;-75
2022/08/15 06:33:24;;;;;;;14.93;12.80;;;;;;;-143.84;64.17;45020.50;5130452;27;20436;-75
2022/08/15 06:35:59;;;;;;;15.70;13.87;;;;;;;-143.84;64.02;45005.28;5130602;27;20962;-74
2022/08/15 06:38:37;;;;;;;15.47;12.70;;;;;;;-143.84;64.11;45009.09;5130435;27;21048;-74
2022/08/15 06:41:15;;;;;;;18.10;12.20;;;;;;;-143.84;62.60;44982.41;5130493;27;20457;-74
2022/08/15 06:43:44;;;;;;;19.83;13.53;;;;;;;-143.84;62.14;45018.59;5130499;27;20507;-75
2022/08/15 06:46:13;;;;;;;18.50;12.63;;;;;;;-143.84;60.70;45010.97;5130441;27;20430;-74
2022/08/15 06:48:42;;;;;;;15.97;13.07;;;;;;;-143.84;60.75;44991.94;5129993;27;20449;-75
2022/08/15 06:51:11;;;;;;;13.13;11.73;;;;;;;-143.84;59.47;44991.94;5129863;27;20538;-74
2022/08/15 06:53:46;;;;;;;13.83;12.47;;;;;;;-143.84;58.65;44980.53;5130016;27;20434;-75
2022/08/15 06:56:25;;;;;;;14.40;10.77;;;;;;;-143.84;56.62;44991.94;5130118;27;21001;-74
2022/08/15 06:59:01;;;;;;;23.37;12.00;;;;;;;-143.84;56.74;44984.31;5130327;27;20437;-74
2022/08/15 07:01:42;;;;;;;16.83;12.27;;;;;;;-143.84;56.91;44976.72;5129952;27;20434;-75
2022/08/15 07:04:17;;;;;;;15.50;11.90;;;;;;;-143.84;57.59;44997.66;5130014;27;20920;-74
2022/08/15 07:06:50;;;;;;;17.70;13.20;;;;;;;-143.84;56.56;44971.00;5129811;27;20565;-75
2022/08/15 07:09:33;;;;;;;20.23;12.30;;;;;;;-143.84;56.16;44967.19;5129985;27;20967;-78
2022/08/15 07:12:15;;;;;;;12.90;11.03;;;;;;;-143.84;55.67;44972.91;5132462;27;20503;-78
2022/08/15 07:14:53;;;;;;;15.70;12.37;;;;;;;-143.84;55.02;44976.72;5132301;27;20871;-78
2022/08/15 07:17:26;;;;;;;21.03;12.50;;;;;;;-143.84;55.16;44995.75;5131904;28;20479;-77
2022/08/15 07:19:54;;;;;;;18.30;11.57;;;;;;;-143.84;55.49;44984.31;5131822;28;20835;-78
2022/08/15 07:22:21;;;;;;;13.80;10.87;;;;;;;-143.84;54.79;44967.19;5132128;28;20438;-78
2022/08/15 07:24:51;;;;;;;19.13;12.60;;;;;;;-143.84;54.61;44961.47;5131812;28;20478;-78
2022/08/15 07:27:28;;;;;;;15.20;11.40;;;;;;;-143.84;54.67;44965.28;5131418;28;20442;-78
2022/08/15 07:29:59;;;;;;;14.03;10.70;;;;;;;-143.84;54.01;44959.56;5131767;28;20484;-78
2022/08/15 07:32:30;;;;;;;19.07;10.80;;;;;;;-143.84;54.12;44969.09;5131258;28;21002;-78
2022/08/15 07:35:04;;;;;;;15.37;11.03;;;;;;;-143.84;53.74;44971.00;5131572;28;20438;-79
2022/08/15 07:37:34;;;;;;;11.40;10.00;;;;;;;-143.84;52.93;44967.19;5134393;27;20881;-78
2022/08/15 07:40:06;;;;;;;18.73;11.57;;;;;;;-143.84;53.38;44951.97;5135794;27;20506;-78
2022/08/15 07:42:41;;;;;;;12.93;11.20;;;;;;;-143.84;54.00;44963.38;5135719;27;20442;-78
2022/08/15 07:45:26;;;;;;;21.33;10.83;;;;;;;-143.84;54.24;44982.41;5136034;27;20520;-77
2022/08/15 07:47:57;;;;;;;21.17;11.40;;;;;;;-143.84;54.18;44950.06;5135247;27;20462;-77
2022/08/15 07:50:33;;;;;;;11.67;10.57;;;;;;;-143.84;53.63;44965.28;5135325;27;20477;-77
2022/08/15 07:53:10;;;;;;;12.63;10.90;;;;;;;-143.84;54.01;44974.81;5134876;27;21008;-77
2022/08/15 07:55:38;;;;;;;16.27;12.27;;;;;;;-143.84;53.01;44951.97;5135048;27;21238;-77
2022/08/15 07:58:15;;;;;;;24.27;12.63;;;;;;;-143.84;53.31;44953.88;5134855;27;20443;-76
2022/08/15 08:00:42;;;;;;;14.00;11.83;;;;;;;-143.84;53.24;44963.38;5135827;27;20561;-77
2022/08/15 08:03:17;;;;;;;15.43;11.60;;;;;;;-143.84;53.30;44982.41;5137628;27;20438;-77
2022/08/15 08:05:52;;;;;;;17.20;12.10;;;;;;;-143.84;53.86;44951.97;5137890;27;20433;-78
2022/08/15 08:08:22;;;;;;;16.73;13.77;;;;;;;-143.84;53.85;44974.81;5135446;27;20434;-77
2022/08/15 08:10:54;;;;;;;16.70;13.73;;;;;;;-143.84;53.46;44969.09;5133897;27;20469;-75
2022/08/15 08:13:35;;;;;;;16.10;11.60;;;;;;;-143.84;54.58;44950.06;5133788;27;20442;-75
2022/08/15 08:16:09;;;;;;;15.93;11.40;;;;;;;-143.84;54.83;44986.22;5133706;27;20445;-75
2022/08/15 08:18:45;;;;;;;13.40;11.47;;;;;;;-143.84;52.92;44965.28;5134121;27;20887;-76
2022/08/15 08:21:16;;;;;;;13.97;12.57;;;;;;;-143.84;53.65;44953.88;5134374;27;20442;-77
2022/08/15 08:23:47;;;;;;;18.13;11.97;;;;;;;-143.84;52.64;44961.47;5133998;27;20429;-76
2022/08/15 08:26:31;;;;;;;13.93;12.53;;;;;;;-143.84;52.87;44959.56;5133865;27;20479;-76
2022/08/15 08:29:09;;;;;;;13.10;11.47;;;;;;;-143.84;52.81;44991.94;5134357;27;20532;-77
2022/08/15 08:31:42;;;;;;;15.50;12.00;;;;;;;-143.84;54.15;44955.75;5133343;27;20488;-76
2022/08/15 08:34:23;;;;;;;12.43;11.20;;;;;;;-143.84;53.04;44961.47;5133108;27;20483;-76
2022/08/15 08:36:59;;;;;;;12.27;10.90;;;;;;;-143.84;54.28;44972.91;5133014;27;20446;-75
2022/08/15 08:39:40;;;;;;;13.20;10.40;;;;;;;-143.84;52.80;44948.16;5133016;27;20421;-75
2022/08/15 08:42:23;;;;;;;9.50;8.60;;;;;;;-143.84;51.27;44963.38;5133113;27;20794;-76
2022/08/15 08:45:05;;;;;;;16.20;8.73;;;;;;;-143.84;51.56;44944.34;5132952;27;20441;-75
2022/08/15 08:48:10;;;;;;;11.47;7.90;;;;;;;-143.84;50.77;44972.91;5132008;27;20517;-75
2022/08/15 08:50:44;;;;;;;8.27;7.50;;;;;;;-143.84;49.29;44948.16;5132486;27;20522;-75
2022/08/15 08:53:23;;;;;;;12.17;7.53;;;;;;;-143.84;49.51;44957.66;5132546;27;20445;-75
2022/08/15 08:55:53;;;;;;;11.83;7.60;;;;;;;-143.84;49.14;44931.00;5133125;27;20462;-76
2022/08/15 08:58:33;;;;;;;10.03;7.47;;;;;;;-143.84;48.82;44925.31;5132274;27;20529;-74
2022/08/15 09:01:03;;;;;;;13.77;7.47;;;;;;;-143.84;47.35;44929.09;5131912;27;21004;-74
2022/08/15 09:03:34;;;;;;;10.03;8.03;;;;;;;-143.84;47.75;44944.34;5132027;27;20537;-75
2022/08/15 09:06:02;;;;;;;14.33;8.47;;;;;;;-143.84;47.89;44917.69;5133581;27;20466;-79
2022/08/15 09:08:34;;;;;;;10.00;9.10;;;;;;;-143.84;47.81;44911.97;5133523;27;20932;-79
2022/08/15 09:11:05;;;;;;;11.50;9.47;;;;;;;-143.84;48.31;44942.44;5133699;27;20898;-79
2022/08/15 09:13:36;;;;;;;11.40;10.30;;;;;;;-143.84;48.11;44929.09;5132637;27;20430;-76
2022/08/15 09:16:16;;;;;;;11.27;10.27;;;;;;;-143.84;48.19;44915.78;5132535;27;20434;-75
2022/08/15 09:18:50;;;;;;;10.10;8.80;;;;;;;-143.84;48.65;44942.44;5131875;27;20854;-76
2022/08/15 09:21:18;;;;;;;10.60;9.57;;;;;;;-143.84;48.36;44908.16;5131966;27;20438;-75
2022/08/15 09:23:47;;;;;;;12.73;11.53;;;;;;;-143.84;47.83;44925.31;5130958;27;20951;-75
2022/08/15 09:26:19;;;;;;;11.70;10.43;;;;;;;-143.84;47.84;44951.97;5131769;27;20992;-75
2022/08/15 09:28:51;;;;;;;13.63;10.83;;;;;;;-143.84;47.43;44904.34;5126090;27;20481;-73
2022/08/15 09:31:25;;;;;;;22.03;11.20;;;;;;;-143.84;46.97;44929.09;5110717;27;20519;-75
2022/08/15 09:34:21;;;;;;;15.40;11.00;;;;;;;-143.84;46.88;44913.88;5111363;28;20451;-75
2022/08/15 09:37:17;;;;;;;12.37;11.10;;;;;;;-143.84;46.68;44923.41;5084712;28;20940;-74
2022/08/15 09:40:02;;;;;;;14.47;9.53;;;;;;;-143.84;45.23;44917.69;5111033;28;20443;-75
2022/08/15 09:42:50;;;;;;;10.37;9.37;;;;;;;-143.84;45.15;44913.88;5111130;28;20457;-74
2022/08/15 09:45:37;;;;;;;11.43;10.27;;;;;;;-143.84;44.52;44915.78;5110884;28;20450;-75
2022/08/15 09:48:24;;;;;;;8.73;8.03;;;;;;;-143.84;43.84;44889.13;5110756;28;20500;-74
2022/08/15 09:51:13;;;;;;;7.80;7.20;;;;;;;-143.84;43.05;44889.13;5129459;27;20482;-74
2022/08/15 09:53:58;;;;;;;10.10;8.63;;;;;;;-143.84;42.73;44891.03;5131003;27;20502;-74
2022/08/15 09:56:27;;;;;;;7.67;6.97;;;;;;;-143.84;42.63;44862.47;5110751;28;20443;-75
2022/08/15 09:58:58;;;;;;;12.10;8.10;;;;;;;-143.84;42.43;44894.84;5110208;28;20446;-74
2022/08/15 10:01:29;;;;;;;9.50;8.43;;;;;;;-143.84;42.45;44879.59;5110440;28;20523;-74
2022/08/15 10:04:01;;;;;;;9.87;8.90;;;;;;;-143.84;41.54;44904.34;5110321;28;20790;-74
2022/08/15 10:06:31;;;;;;;10.97;8.67;;;;;;;-143.84;43.08;44877.69;5127872;27;21031;-75
2022/08/15 10:09:15;;;;;;;10.97;9.30;;;;;;;-143.84;41.96;44873.88;5130870;27;20446;-75
2022/08/15 10:12:06;;;;;;;11.33;10.43;;;;;;;-143.84;41.54;44908.16;5130751;27;20481;-74
2022/08/15 10:14:49;;;;;;;11.07;10.07;;;;;;;-143.84;41.84;44873.88;5129901;27;20507;-75
2022/08/15 10:17:38;;;;;;;9.50;8.80;;;;;;;-143.84;42.09;44885.31;5129742;27;20442;-74
2022/08/15 10:20:40;;;;;;;10.60;9.70;;;;;;;-143.84;42.21;44896.75;5130638;27;21008;-74
2022/08/15 10:23:15;;;;;;;9.57;8.67;;;;;;;-143.84;42.64;44894.84;5129869;27;20445;-74
2022/08/15 10:25:43;;;;;;;10.83;8.40;;;;;;;-143.84;41.17;44873.88;5129729;27;20577;-74
2022/08/15 10:28:23;;;;;;;10.27;9.33;;;;;;;-143.84;42.39;44877.69;5130679;27;20873;-74
2022/08/15 10:31:25;;;;;;;11.87;9.00;;;;;;;-143.84;41.28;44887.22;5130390;27;20481;-74
2022/08/15 10:33:54;;;;;;;11.40;9.50;;;;;;;-143.84;41.21;44877.69;5113105;27;20452;-75
2022/08/15 10:36:27;;;;;;;10.77;9.73;;;;;;;-143.84;40.94;44891.03;5109578;28;20576;-75
2022/08/15 10:39:13;;;;;;;13.43;11.30;;;;;;;-143.84;41.57;44908.16;5109677;28;20522;-74
2022/08/15 10:41:53;;;;;;;13.07;9.87;;;;;;;-143.84;42.48;44904.34;5110868;27;20431;-74
2022/08/15 10:44:27;;;;;;;10.50;9.60;;;;;;;-143.84;41.94;44915.78;5130513;27;20545;-74
2022/08/15 10:47:05;;;;;;;10.17;9.30;;;;;;;-143.84;42.54;44927.19;5129098;27;20446;-74
2022/08/15 10:49:44;;;;;;;11.57;9.77;;;;;;;-143.84;43.30;44915.78;5130217;27;20437;-75
2022/08/15 10:52:39;;;;;;;17.53;12.07;;;;;;;-143.84;44.31;44900.53;5129944;27;20526;-75
2022/08/15 10:55:27;;;;;;;19.57;11.60;;;;;;;-143.84;43.91;44919.59;5130743;27;21042;-78
2022/08/15 10:58:00;;;;;;;12.13;9.47;;;;;;;-143.84;42.97;44919.59;5132821;27;20476;-79
2022/08/15 11:00:44;;;;;;;12.20;10.47;;;;;;;-143.84;42.06;44908.16;5120524;27;20443;-78
2022/08/15 11:03:23;;;;;;;11.13;10.13;;;;;;;-143.84;42.06;44940.53;5110276;28;20821;-74
2022/08/15 11:05:56;;;;;;;12.73;9.20;;;;;;;-143.84;42.97;44908.16;5110253;28;20496;-76
2022/08/15 11:08:24;;;;;;;10.70;9.80;;;;;;;-143.84;42.85;44904.34;5111162;28;20443;-77
2022/08/15 11:10:53;;;;;;;13.40;8.93;;;;;;;-143.84;43.65;44896.75;5109782;28;20482;-78
2022/08/15 11:13:25;;;;;;;14.23;9.30;;;;;;;-143.84;42.23;44921.50;5111552;28;20447;-79
2022/08/15 11:15:55;;;;;;;9.63;8.50;;;;;;;-143.84;41.31;44902.44;5111851;28;20427;-79
2022/08/15 11:18:29;;;;;;;9.43;8.60;;;;;;;-143.84;41.88;44908.16;5111175;28;20857;-77
2022/08/15 11:21:06;;;;;;;10.00;8.07;;;;;;;-143.84;41.22;44900.53;5123336;28;20434;-77
2022/08/15 11:23:39;;;;;;;11.13;10.03;;;;;;;-143.84;41.42;44932.91;5131179;28;20448;-77
2022/08/15 11:26:10;;;;;;;32.77;11.80;;;;;;;-143.84;42.15;44919.59;5131343;28;20481;-77
2022/08/15 11:28:41;;;;;;;17.83;11.37;;;;;;;-143.84;43.78;44891.03;5131019;28;20996;-77
2022/08/15 11:31:13;;;;;;;9.37;8.37;;;;;;;-143.84;41.57;44904.34;5130965;28;20478;-77